sensor_id;sensor_type;location;lat;lon;timestamp;temperature;humidity
34873;DHT22;21084;51.098;14.506;2023-05-20T00:01:15;9.30;81.00
34873;DHT22;21084;51.098;14.506;2023-05-20T00:03:43;9.20;80.80
34873;DHT22;21084;51.098;14.506;2023-05-20T00:06:12;9.20;80.80
34873;DHT22;21084;51.098;14.506;2023-05-20T00:08:40;9.10;80.40
34873;DHT22;21084;51.098;14.506;2023-05-20T00:11:08;9.10;80.90
34873;DHT22;21084;51.098;14.506;2023-05-20T00:13:37;9.10;81.30
34873;DHT22;21084;51.098;14.506;2023-05-20T00:16:05;9.10;81.30
34873;DHT22;21084;51.098;14.506;2023-05-20T00:18:35;9.10;81.10
34873;DHT22;21084;51.098;14.506;2023-05-20T00:21:03;9.00;80.90
34873;DHT22;21084;51.098;14.506;2023-05-20T00:23:32;9.00;80.70
34873;DHT22;21084;51.098;14.506;2023-05-20T00:26:00;8.90;80.70
34873;DHT22;21084;51.098;14.506;2023-05-20T00:28:28;8.90;80.50
34873;DHT22;21084;51.098;14.506;2023-05-20T00:30:57;8.80;80.70
34873;DHT22;21084;51.098;14.506;2023-05-20T00:33:25;8.80;80.90
34873;DHT22;21084;51.098;14.506;2023-05-20T00:35:54;8.70;80.60
34873;DHT22;21084;51.098;14.506;2023-05-20T00:38:23;8.70;80.80
34873;DHT22;21084;51.098;14.506;2023-05-20T00:40:51;8.60;80.60
34873;DHT22;21084;51.098;14.506;2023-05-20T00:43:19;8.60;80.90
34873;DHT22;21084;51.098;14.506;2023-05-20T00:45:51;8.60;81.70
34873;DHT22;21084;51.098;14.506;2023-05-20T00:48:19;8.70;82.50
34873;DHT22;21084;51.098;14.506;2023-05-20T00:50:48;8.80;83.30
34873;DHT22;21084;51.098;14.506;2023-05-20T00:53:18;8.80;82.90
34873;DHT22;21084;51.098;14.506;2023-05-20T00:55:47;8.80;83.50
34873;DHT22;21084;51.098;14.506;2023-05-20T00:58:15;8.90;83.80
34873;DHT22;21084;51.098;14.506;2023-05-20T01:00:44;9.00;83.90
34873;DHT22;21084;51.098;14.506;2023-05-20T01:03:12;9.00;84.10
34873;DHT22;21084;51.098;14.506;2023-05-20T01:05:40;9.10;84.30
34873;DHT22;21084;51.098;14.506;2023-05-20T01:08:08;9.20;84.50
34873;DHT22;21084;51.098;14.506;2023-05-20T01:10:40;9.30;84.50
34873;DHT22;21084;51.098;14.506;2023-05-20T01:13:09;9.40;84.70
34873;DHT22;21084;51.098;14.506;2023-05-20T01:15:39;9.50;84.90
34873;DHT22;21084;51.098;14.506;2023-05-20T01:18:07;9.60;84.80
34873;DHT22;21084;51.098;14.506;2023-05-20T01:20:36;9.70;84.90
34873;DHT22;21084;51.098;14.506;2023-05-20T01:23:06;9.80;84.90
34873;DHT22;21084;51.098;14.506;2023-05-20T01:25:34;9.80;84.80
34873;DHT22;21084;51.098;14.506;2023-05-20T01:28:03;9.90;84.60
34873;DHT22;21084;51.098;14.506;2023-05-20T01:30:32;9.90;84.50
34873;DHT22;21084;51.098;14.506;2023-05-20T01:33:04;10.00;83.50
34873;DHT22;21084;51.098;14.506;2023-05-20T01:35:33;10.00;83.40
34873;DHT22;21084;51.098;14.506;2023-05-20T01:38:02;10.00;83.30
34873;DHT22;21084;51.098;14.506;2023-05-20T01:40:32;10.10;83.40
34873;DHT22;21084;51.098;14.506;2023-05-20T01:43:01;10.10;83.20
34873;DHT22;21084;51.098;14.506;2023-05-20T01:45:30;10.20;83.40
34873;DHT22;21084;51.098;14.506;2023-05-20T01:47:58;10.20;83.20
34873;DHT22;21084;51.098;14.506;2023-05-20T01:50:27;10.20;83.10
34873;DHT22;21084;51.098;14.506;2023-05-20T01:52:55;10.30;82.90
34873;DHT22;21084;51.098;14.506;2023-05-20T01:55:24;10.30;83.00
34873;DHT22;21084;51.098;14.506;2023-05-20T01:57:53;10.30;82.90
34873;DHT22;21084;51.098;14.506;2023-05-20T02:00:22;10.40;82.90
34873;DHT22;21084;51.098;14.506;2023-05-20T02:02:50;10.30;82.60
34873;DHT22;21084;51.098;14.506;2023-05-20T02:05:18;10.40;82.60
34873;DHT22;21084;51.098;14.506;2023-05-20T02:07:46;10.40;83.30
34873;DHT22;21084;51.098;14.506;2023-05-20T02:10:15;10.40;82.50
34873;DHT22;21084;51.098;14.506;2023-05-20T02:12:43;10.40;83.20
34873;DHT22;21084;51.098;14.506;2023-05-20T02:15:15;10.40;82.40
34873;DHT22;21084;51.098;14.506;2023-05-20T02:17:43;10.50;82.50
34873;DHT22;21084;51.098;14.506;2023-05-20T02:20:11;10.50;82.50
34873;DHT22;21084;51.098;14.506;2023-05-20T02:22:40;10.50;82.60
34873;DHT22;21084;51.098;14.506;2023-05-20T02:25:08;10.60;82.40
34873;DHT22;21084;51.098;14.506;2023-05-20T02:27:36;10.60;82.20
34873;DHT22;21084;51.098;14.506;2023-05-20T02:30:06;10.60;82.10
34873;DHT22;21084;51.098;14.506;2023-05-20T02:32:36;10.60;82.70
34873;DHT22;21084;51.098;14.506;2023-05-20T02:35:04;10.60;82.10
34873;DHT22;21084;51.098;14.506;2023-05-20T02:37:33;10.60;82.00
34873;DHT22;21084;51.098;14.506;2023-05-20T02:40:01;10.70;82.00
34873;DHT22;21084;51.098;14.506;2023-05-20T02:42:31;10.70;81.80
34873;DHT22;21084;51.098;14.506;2023-05-20T02:44:59;10.70;81.80
34873;DHT22;21084;51.098;14.506;2023-05-20T02:47:27;10.70;81.80
34873;DHT22;21084;51.098;14.506;2023-05-20T02:49:57;10.70;81.70
34873;DHT22;21084;51.098;14.506;2023-05-20T02:52:25;10.70;81.90
34873;DHT22;21084;51.098;14.506;2023-05-20T02:54:53;10.70;81.80
34873;DHT22;21084;51.098;14.506;2023-05-20T02:57:22;10.70;81.60
34873;DHT22;21084;51.098;14.506;2023-05-20T02:59:50;10.70;81.70
34873;DHT22;21084;51.098;14.506;2023-05-20T03:02:19;10.70;81.80
34873;DHT22;21084;51.098;14.506;2023-05-20T03:04:47;10.70;81.60
34873;DHT22;21084;51.098;14.506;2023-05-20T03:07:18;10.80;81.80
34873;DHT22;21084;51.098;14.506;2023-05-20T03:09:47;10.70;81.50
34873;DHT22;21084;51.098;14.506;2023-05-20T03:12:15;10.80;81.60
34873;DHT22;21084;51.098;14.506;2023-05-20T03:14:43;10.80;81.50
34873;DHT22;21084;51.098;14.506;2023-05-20T03:17:12;10.80;81.40
34873;DHT22;21084;51.098;14.506;2023-05-20T03:19:40;10.80;81.40
34873;DHT22;21084;51.098;14.506;2023-05-20T03:22:08;10.80;81.40
34873;DHT22;21084;51.098;14.506;2023-05-20T03:24:38;10.90;81.50
34873;DHT22;21084;51.098;14.506;2023-05-20T03:27:06;10.80;81.30
34873;DHT22;21084;51.098;14.506;2023-05-20T03:29:34;10.90;81.30
34873;DHT22;21084;51.098;14.506;2023-05-20T03:32:03;10.90;81.20
34873;DHT22;21084;51.098;14.506;2023-05-20T03:34:35;10.90;81.20
34873;DHT22;21084;51.098;14.506;2023-05-20T03:37:04;11.00;81.20
34873;DHT22;21084;51.098;14.506;2023-05-20T03:39:32;11.00;81.00
34873;DHT22;21084;51.098;14.506;2023-05-20T03:42:02;11.00;80.90
34873;DHT22;21084;51.098;14.506;2023-05-20T03:44:30;11.10;80.90
34873;DHT22;21084;51.098;14.506;2023-05-20T03:46:58;11.10;80.70
34873;DHT22;21084;51.098;14.506;2023-05-20T03:49:27;11.20;80.50
34873;DHT22;21084;51.098;14.506;2023-05-20T03:51:55;11.20;80.50
34873;DHT22;21084;51.098;14.506;2023-05-20T03:54:23;11.20;80.60
34873;DHT22;21084;51.098;14.506;2023-05-20T03:56:51;11.30;80.50
34873;DHT22;21084;51.098;14.506;2023-05-20T03:59:22;11.30;80.30
34873;DHT22;21084;51.098;14.506;2023-05-20T04:01:50;11.40;80.30
34873;DHT22;21084;51.098;14.506;2023-05-20T04:04:18;11.40;80.00
34873;DHT22;21084;51.098;14.506;2023-05-20T04:06:47;11.50;79.90
34873;DHT22;21084;51.098;14.506;2023-05-20T04:09:15;11.50;79.70
34873;DHT22;21084;51.098;14.506;2023-05-20T04:11:43;11.50;79.50
34873;DHT22;21084;51.098;14.506;2023-05-20T04:14:11;11.50;79.60
34873;DHT22;21084;51.098;14.506;2023-05-20T04:16:41;11.50;79.30
34873;DHT22;21084;51.098;14.506;2023-05-20T04:19:10;11.50;79.50
34873;DHT22;21084;51.098;14.506;2023-05-20T04:21:41;11.50;79.50
34873;DHT22;21084;51.098;14.506;2023-05-20T04:24:10;11.50;79.10
34873;DHT22;21084;51.098;14.506;2023-05-20T04:26:38;11.50;79.30
34873;DHT22;21084;51.098;14.506;2023-05-20T04:29:06;11.50;79.60
34873;DHT22;21084;51.098;14.506;2023-05-20T04:31:34;11.70;79.40
34873;DHT22;21084;51.098;14.506;2023-05-20T04:34:05;11.70;79.10
34873;DHT22;21084;51.098;14.506;2023-05-20T04:36:34;11.80;79.30
34873;DHT22;21084;51.098;14.506;2023-05-20T04:39:04;11.80;78.50
34873;DHT22;21084;51.098;14.506;2023-05-20T04:41:32;11.80;78.10
34873;DHT22;21084;51.098;14.506;2023-05-20T04:44:02;11.80;78.20
34873;DHT22;21084;51.098;14.506;2023-05-20T04:46:32;11.80;78.00
34873;DHT22;21084;51.098;14.506;2023-05-20T04:49:00;11.90;78.20
34873;DHT22;21084;51.098;14.506;2023-05-20T04:51:32;12.00;78.20
34873;DHT22;21084;51.098;14.506;2023-05-20T04:54:01;12.10;77.90
34873;DHT22;21084;51.098;14.506;2023-05-20T04:56:29;12.10;77.30
34873;DHT22;21084;51.098;14.506;2023-05-20T04:58:57;12.10;77.50
34873;DHT22;21084;51.098;14.506;2023-05-20T05:01:25;12.20;77.20
34873;DHT22;21084;51.098;14.506;2023-05-20T05:03:54;12.20;76.70
34873;DHT22;21084;51.098;14.506;2023-05-20T05:06:22;12.30;76.80
34873;DHT22;21084;51.098;14.506;2023-05-20T05:08:51;12.30;76.40
34873;DHT22;21084;51.098;14.506;2023-05-20T05:11:20;12.30;76.90
34873;DHT22;21084;51.098;14.506;2023-05-20T05:13:48;12.30;76.90
34873;DHT22;21084;51.098;14.506;2023-05-20T05:16:17;12.50;76.40
34873;DHT22;21084;51.098;14.506;2023-05-20T05:18:45;12.50;76.00
34873;DHT22;21084;51.098;14.506;2023-05-20T05:21:13;12.60;75.90
34873;DHT22;21084;51.098;14.506;2023-05-20T05:23:42;12.60;76.00
34873;DHT22;21084;51.098;14.506;2023-05-20T05:26:11;12.60;75.90
34873;DHT22;21084;51.098;14.506;2023-05-20T05:28:40;12.70;75.70
34873;DHT22;21084;51.098;14.506;2023-05-20T05:31:08;12.70;74.90
34873;DHT22;21084;51.098;14.506;2023-05-20T05:33:36;12.90;75.40
34873;DHT22;21084;51.098;14.506;2023-05-20T05:36:05;13.00;74.50
34873;DHT22;21084;51.098;14.506;2023-05-20T05:38:33;13.10;74.30
34873;DHT22;21084;51.098;14.506;2023-05-20T05:41:02;13.30;74.10
34873;DHT22;21084;51.098;14.506;2023-05-20T05:43:31;13.40;73.30
34873;DHT22;21084;51.098;14.506;2023-05-20T05:46:00;13.60;72.40
34873;DHT22;21084;51.098;14.506;2023-05-20T05:48:28;13.60;72.40
34873;DHT22;21084;51.098;14.506;2023-05-20T05:50:56;13.70;72.30
34873;DHT22;21084;51.098;14.506;2023-05-20T05:53:24;13.80;71.90
34873;DHT22;21084;51.098;14.506;2023-05-20T05:55:52;14.00;71.40
34873;DHT22;21084;51.098;14.506;2023-05-20T05:58:21;14.10;70.70
34873;DHT22;21084;51.098;14.506;2023-05-20T06:00:51;14.20;70.70
34873;DHT22;21084;51.098;14.506;2023-05-20T06:03:23;14.30;70.20
34873;DHT22;21084;51.098;14.506;2023-05-20T06:05:59;14.30;70.40
34873;DHT22;21084;51.098;14.506;2023-05-20T06:08:29;14.40;69.60
34873;DHT22;21084;51.098;14.506;2023-05-20T06:10:58;14.30;69.70
34873;DHT22;21084;51.098;14.506;2023-05-20T06:13:26;14.50;69.50
34873;DHT22;21084;51.098;14.506;2023-05-20T06:15:56;14.80;69.30
34873;DHT22;21084;51.098;14.506;2023-05-20T06:18:24;15.10;68.80
34873;DHT22;21084;51.098;14.506;2023-05-20T06:20:55;15.50;67.40
34873;DHT22;21084;51.098;14.506;2023-05-20T06:23:24;15.60;66.10
34873;DHT22;21084;51.098;14.506;2023-05-20T06:25:52;15.30;66.40
34873;DHT22;21084;51.098;14.506;2023-05-20T06:28:24;15.50;66.80
34873;DHT22;21084;51.098;14.506;2023-05-20T06:30:52;15.70;66.70
34873;DHT22;21084;51.098;14.506;2023-05-20T06:33:23;15.60;65.50
34873;DHT22;21084;51.098;14.506;2023-05-20T06:35:54;15.60;65.80
34873;DHT22;21084;51.098;14.506;2023-05-20T06:38:22;15.60;65.40
34873;DHT22;21084;51.098;14.506;2023-05-20T06:40:50;15.60;65.70
34873;DHT22;21084;51.098;14.506;2023-05-20T06:43:18;16.00;65.20
34873;DHT22;21084;51.098;14.506;2023-05-20T06:45:47;16.00;64.80
34873;DHT22;21084;51.098;14.506;2023-05-20T06:48:16;15.80;64.30
34873;DHT22;21084;51.098;14.506;2023-05-20T06:50:46;15.70;64.80
34873;DHT22;21084;51.098;14.506;2023-05-20T06:53:14;15.70;65.10
34873;DHT22;21084;51.098;14.506;2023-05-20T06:55:42;15.90;65.30
34873;DHT22;21084;51.098;14.506;2023-05-20T06:58:11;15.80;65.20
34873;DHT22;21084;51.098;14.506;2023-05-20T07:00:39;15.60;65.20
34873;DHT22;21084;51.098;14.506;2023-05-20T07:03:07;15.60;65.70
34873;DHT22;21084;51.098;14.506;2023-05-20T07:05:37;15.70;66.20
34873;DHT22;21084;51.098;14.506;2023-05-20T07:08:07;15.50;64.50
34873;DHT22;21084;51.098;14.506;2023-05-20T07:10:35;15.60;65.90
34873;DHT22;21084;51.098;14.506;2023-05-20T07:13:03;16.00;65.10
34873;DHT22;21084;51.098;14.506;2023-05-20T07:15:31;16.00;64.20
34873;DHT22;21084;51.098;14.506;2023-05-20T07:18:00;16.10;64.70
34873;DHT22;21084;51.098;14.506;2023-05-20T07:20:28;16.60;64.40
34873;DHT22;21084;51.098;14.506;2023-05-20T07:22:56;16.70;64.40
34873;DHT22;21084;51.098;14.506;2023-05-20T07:25:26;16.90;63.10
34873;DHT22;21084;51.098;14.506;2023-05-20T07:27:54;17.30;63.30
34873;DHT22;21084;51.098;14.506;2023-05-20T07:30:22;17.50;61.40
34873;DHT22;21084;51.098;14.506;2023-05-20T07:32:50;17.50;61.70
34873;DHT22;21084;51.098;14.506;2023-05-20T07:35:19;17.70;61.10
34873;DHT22;21084;51.098;14.506;2023-05-20T07:37:47;17.40;61.00
34873;DHT22;21084;51.098;14.506;2023-05-20T07:40:15;17.90;61.30
34873;DHT22;21084;51.098;14.506;2023-05-20T07:42:45;18.10;60.00
34873;DHT22;21084;51.098;14.506;2023-05-20T07:45:14;18.50;59.40
34873;DHT22;21084;51.098;14.506;2023-05-20T07:47:42;18.80;58.50
34873;DHT22;21084;51.098;14.506;2023-05-20T07:50:10;18.50;58.80
34873;DHT22;21084;51.098;14.506;2023-05-20T07:52:38;18.80;58.30
34873;DHT22;21084;51.098;14.506;2023-05-20T07:55:22;19.20;58.20
34873;DHT22;21084;51.098;14.506;2023-05-20T07:57:51;19.00;58.10
34873;DHT22;21084;51.098;14.506;2023-05-20T08:00:19;18.40;58.40
34873;DHT22;21084;51.098;14.506;2023-05-20T08:02:48;18.80;59.60
34873;DHT22;21084;51.098;14.506;2023-05-20T08:05:16;19.20;57.60
34873;DHT22;21084;51.098;14.506;2023-05-20T08:07:44;19.20;57.30
34873;DHT22;21084;51.098;14.506;2023-05-20T08:10:13;19.10;57.20
34873;DHT22;21084;51.098;14.506;2023-05-20T08:12:41;19.30;57.20
34873;DHT22;21084;51.098;14.506;2023-05-20T08:15:11;19.60;57.40
34873;DHT22;21084;51.098;14.506;2023-05-20T08:17:39;19.80;56.20
34873;DHT22;21084;51.098;14.506;2023-05-20T08:20:08;19.40;55.70
34873;DHT22;21084;51.098;14.506;2023-05-20T08:22:36;18.90;57.10
34873;DHT22;21084;51.098;14.506;2023-05-20T08:25:06;19.40;57.60
34873;DHT22;21084;51.098;14.506;2023-05-20T08:27:35;19.40;56.50
34873;DHT22;21084;51.098;14.506;2023-05-20T08:30:03;19.50;57.10
34873;DHT22;21084;51.098;14.506;2023-05-20T08:32:34;19.50;56.20
34873;DHT22;21084;51.098;14.506;2023-05-20T08:35:02;19.70;56.10
34873;DHT22;21084;51.098;14.506;2023-05-20T08:37:31;19.70;55.30
34873;DHT22;21084;51.098;14.506;2023-05-20T08:39:59;19.70;55.80
34873;DHT22;21084;51.098;14.506;2023-05-20T08:42:27;19.50;55.90
34873;DHT22;21084;51.098;14.506;2023-05-20T08:44:55;19.10;56.60
34873;DHT22;21084;51.098;14.506;2023-05-20T08:47:25;19.30;57.20
34873;DHT22;21084;51.098;14.506;2023-05-20T08:49:55;19.60;56.40
34873;DHT22;21084;51.098;14.506;2023-05-20T08:52:23;19.60;55.70
34873;DHT22;21084;51.098;14.506;2023-05-20T08:54:52;19.70;56.10
34873;DHT22;21084;51.098;14.506;2023-05-20T08:57:20;19.70;55.70
34873;DHT22;21084;51.098;14.506;2023-05-20T08:59:49;20.10;56.30
34873;DHT22;21084;51.098;14.506;2023-05-20T09:02:17;20.00;55.30
34873;DHT22;21084;51.098;14.506;2023-05-20T09:04:45;20.30;55.10
34873;DHT22;21084;51.098;14.506;2023-05-20T09:07:15;20.70;55.10
34873;DHT22;21084;51.098;14.506;2023-05-20T09:09:52;21.30;55.30
34873;DHT22;21084;51.098;14.506;2023-05-20T09:12:21;21.50;53.30
34873;DHT22;21084;51.098;14.506;2023-05-20T09:14:49;21.60;52.70
34873;DHT22;21084;51.098;14.506;2023-05-20T09:17:17;22.10;52.90
34873;DHT22;21084;51.098;14.506;2023-05-20T09:19:46;22.50;51.80
34873;DHT22;21084;51.098;14.506;2023-05-20T09:22:21;22.80;51.50
34873;DHT22;21084;51.098;14.506;2023-05-20T09:24:50;23.10;50.50
34873;DHT22;21084;51.098;14.506;2023-05-20T09:27:19;22.90;50.20
34873;DHT22;21084;51.098;14.506;2023-05-20T09:29:47;22.90;50.70
34873;DHT22;21084;51.098;14.506;2023-05-20T09:32:16;23.30;50.70
34873;DHT22;21084;51.098;14.506;2023-05-20T09:34:45;23.90;49.30
34873;DHT22;21084;51.098;14.506;2023-05-20T09:37:16;22.70;48.90
34873;DHT22;21084;51.098;14.506;2023-05-20T09:39:47;23.20;50.90
34873;DHT22;21084;51.098;14.506;2023-05-20T09:42:20;22.90;50.20
34873;DHT22;21084;51.098;14.506;2023-05-20T09:44:49;22.40;50.70
34873;DHT22;21084;51.098;14.506;2023-05-20T09:47:18;22.00;50.60
34873;DHT22;21084;51.098;14.506;2023-05-20T09:49:47;22.80;50.70
34873;DHT22;21084;51.098;14.506;2023-05-20T09:52:15;23.30;49.20
34873;DHT22;21084;51.098;14.506;2023-05-20T09:54:48;24.20;49.90
34873;DHT22;21084;51.098;14.506;2023-05-20T09:57:17;25.70;48.30
34873;DHT22;21084;51.098;14.506;2023-05-20T09:59:46;26.90;45.00
34873;DHT22;21084;51.098;14.506;2023-05-20T10:02:14;27.00;43.80
34873;DHT22;21084;51.098;14.506;2023-05-20T10:04:43;27.40;42.60
34873;DHT22;21084;51.098;14.506;2023-05-20T10:07:27;27.20;43.10
34873;DHT22;21084;51.098;14.506;2023-05-20T10:10:13;27.70;42.00
34873;DHT22;21084;51.098;14.506;2023-05-20T10:12:44;27.20;41.50
34873;DHT22;21084;51.098;14.506;2023-05-20T10:15:16;27.30;43.20
34873;DHT22;21084;51.098;14.506;2023-05-20T10:17:45;26.60;42.10
34873;DHT22;21084;51.098;14.506;2023-05-20T10:20:15;25.50;43.80
34873;DHT22;21084;51.098;14.506;2023-05-20T10:22:53;24.40;45.10
34873;DHT22;21084;51.098;14.506;2023-05-20T10:25:26;24.80;46.00
34873;DHT22;21084;51.098;14.506;2023-05-20T10:28:04;24.50;45.60
34873;DHT22;21084;51.098;14.506;2023-05-20T10:30:33;24.20;46.90
34873;DHT22;21084;51.098;14.506;2023-05-20T10:33:04;23.90;46.50
34873;DHT22;21084;51.098;14.506;2023-05-20T10:35:33;24.10;46.50
34873;DHT22;21084;51.098;14.506;2023-05-20T10:38:07;23.20;46.50
34873;DHT22;21084;51.098;14.506;2023-05-20T10:40:38;23.30;48.00
34873;DHT22;21084;51.098;14.506;2023-05-20T10:43:09;24.50;47.80
34873;DHT22;21084;51.098;14.506;2023-05-20T10:45:47;25.10;46.10
34873;DHT22;21084;51.098;14.506;2023-05-20T10:48:19;24.70;46.40
34873;DHT22;21084;51.098;14.506;2023-05-20T10:50:48;24.40;45.70
34873;DHT22;21084;51.098;14.506;2023-05-20T10:53:17;24.80;46.50
34873;DHT22;21084;51.098;14.506;2023-05-20T10:56:01;24.70;46.20
34873;DHT22;21084;51.098;14.506;2023-05-20T10:58:35;25.10;45.20
34873;DHT22;21084;51.098;14.506;2023-05-20T11:01:03;25.60;45.50
34873;DHT22;21084;51.098;14.506;2023-05-20T11:03:32;25.60;44.60
34873;DHT22;21084;51.098;14.506;2023-05-20T11:06:09;26.10;44.80
34873;DHT22;21084;51.098;14.506;2023-05-20T11:08:37;26.00;44.30
34873;DHT22;21084;51.098;14.506;2023-05-20T11:11:07;26.10;44.00
34873;DHT22;21084;51.098;14.506;2023-05-20T11:13:35;26.10;44.60
34873;DHT22;21084;51.098;14.506;2023-05-20T11:16:04;27.00;43.30
34873;DHT22;21084;51.098;14.506;2023-05-20T11:18:32;26.80;43.00
34873;DHT22;21084;51.098;14.506;2023-05-20T11:21:00;26.10;43.80
34873;DHT22;21084;51.098;14.506;2023-05-20T11:23:29;27.10;42.80
34873;DHT22;21084;51.098;14.506;2023-05-20T11:25:57;27.40;42.00
34873;DHT22;21084;51.098;14.506;2023-05-20T11:28:27;26.30;42.50
34873;DHT22;21084;51.098;14.506;2023-05-20T11:30:59;26.60;42.20
34873;DHT22;21084;51.098;14.506;2023-05-20T11:33:28;27.00;43.90
34873;DHT22;21084;51.098;14.506;2023-05-20T11:35:56;27.40;43.40
34873;DHT22;21084;51.098;14.506;2023-05-20T11:38:24;26.40;43.00
34873;DHT22;21084;51.098;14.506;2023-05-20T11:40:54;26.30;42.90
34873;DHT22;21084;51.098;14.506;2023-05-20T11:43:23;26.60;43.50
34873;DHT22;21084;51.098;14.506;2023-05-20T11:45:53;26.40;43.20
34873;DHT22;21084;51.098;14.506;2023-05-20T11:48:22;26.70;43.10
34873;DHT22;21084;51.098;14.506;2023-05-20T11:50:52;26.90;42.40
34873;DHT22;21084;51.098;14.506;2023-05-20T11:53:20;27.20;43.30
34873;DHT22;21084;51.098;14.506;2023-05-20T11:55:50;28.10;42.60
34873;DHT22;21084;51.098;14.506;2023-05-20T11:58:19;28.30;41.50
34873;DHT22;21084;51.098;14.506;2023-05-20T12:00:48;27.90;41.20
34873;DHT22;21084;51.098;14.506;2023-05-20T12:03:26;27.60;42.10
34873;DHT22;21084;51.098;14.506;2023-05-20T12:05:55;27.30;41.30
34873;DHT22;21084;51.098;14.506;2023-05-20T12:08:23;26.60;43.40
34873;DHT22;21084;51.098;14.506;2023-05-20T12:10:51;27.30;43.10
34873;DHT22;21084;51.098;14.506;2023-05-20T12:13:19;26.70;44.50
34873;DHT22;21084;51.098;14.506;2023-05-20T12:15:49;26.80;43.90
34873;DHT22;21084;51.098;14.506;2023-05-20T12:18:17;26.60;43.40
34873;DHT22;21084;51.098;14.506;2023-05-20T12:20:47;26.70;44.60
34873;DHT22;21084;51.098;14.506;2023-05-20T12:23:15;27.10;43.60
34873;DHT22;21084;51.098;14.506;2023-05-20T12:25:43;27.80;42.60
34873;DHT22;21084;51.098;14.506;2023-05-20T12:28:13;27.70;43.10
34873;DHT22;21084;51.098;14.506;2023-05-20T12:30:42;28.40;42.30
34873;DHT22;21084;51.098;14.506;2023-05-20T12:33:10;27.30;41.20
34873;DHT22;21084;51.098;14.506;2023-05-20T12:35:39;27.40;43.10
34873;DHT22;21084;51.098;14.506;2023-05-20T12:38:08;28.20;42.40
34873;DHT22;21084;51.098;14.506;2023-05-20T12:40:37;28.00;41.20
34873;DHT22;21084;51.098;14.506;2023-05-20T12:43:05;28.50;41.10
34873;DHT22;21084;51.098;14.506;2023-05-20T12:45:33;27.30;42.10
34873;DHT22;21084;51.098;14.506;2023-05-20T12:48:02;27.10;43.60
34873;DHT22;21084;51.098;14.506;2023-05-20T12:50:32;28.20;42.70
34873;DHT22;21084;51.098;14.506;2023-05-20T12:53:01;28.30;41.40
34873;DHT22;21084;51.098;14.506;2023-05-20T12:55:30;28.50;40.80
34873;DHT22;21084;51.098;14.506;2023-05-20T12:57:59;28.70;41.40
34873;DHT22;21084;51.098;14.506;2023-05-20T13:00:27;29.50;40.30
34873;DHT22;21084;51.098;14.506;2023-05-20T13:02:55;27.60;40.70
34873;DHT22;21084;51.098;14.506;2023-05-20T13:05:24;27.80;42.10
34873;DHT22;21084;51.098;14.506;2023-05-20T13:07:53;28.20;42.20
34873;DHT22;21084;51.098;14.506;2023-05-20T13:10:21;27.90;40.70
34873;DHT22;21084;51.098;14.506;2023-05-20T13:12:50;26.90;41.60
34873;DHT22;21084;51.098;14.506;2023-05-20T13:15:18;26.60;43.80
34873;DHT22;21084;51.098;14.506;2023-05-20T13:17:47;26.50;44.60
34873;DHT22;21084;51.098;14.506;2023-05-20T13:20:15;27.40;43.20
34873;DHT22;21084;51.098;14.506;2023-05-20T13:22:45;28.20;42.30
34873;DHT22;21084;51.098;14.506;2023-05-20T13:25:16;28.50;42.40
34873;DHT22;21084;51.098;14.506;2023-05-20T13:27:44;28.80;40.70
34873;DHT22;21084;51.098;14.506;2023-05-20T13:30:13;28.30;41.60
34873;DHT22;21084;51.098;14.506;2023-05-20T13:32:42;28.60;41.10
34873;DHT22;21084;51.098;14.506;2023-05-20T13:35:10;28.90;40.80
34873;DHT22;21084;51.098;14.506;2023-05-20T13:37:39;28.00;41.20
34873;DHT22;21084;51.098;14.506;2023-05-20T13:40:07;27.80;41.20
34873;DHT22;21084;51.098;14.506;2023-05-20T13:42:36;28.20;41.50
34873;DHT22;21084;51.098;14.506;2023-05-20T13:45:04;27.30;41.90
34873;DHT22;21084;51.098;14.506;2023-05-20T13:47:34;26.70;43.70
34873;DHT22;21084;51.098;14.506;2023-05-20T13:50:03;27.00;43.30
34873;DHT22;21084;51.098;14.506;2023-05-20T13:52:31;27.10;43.20
34873;DHT22;21084;51.098;14.506;2023-05-20T13:54:59;27.70;42.60
34873;DHT22;21084;51.098;14.506;2023-05-20T13:57:27;27.80;41.50
34873;DHT22;21084;51.098;14.506;2023-05-20T13:59:56;27.40;42.30
34873;DHT22;21084;51.098;14.506;2023-05-20T14:02:24;27.20;42.90
34873;DHT22;21084;51.098;14.506;2023-05-20T14:04:54;27.40;42.90
34873;DHT22;21084;51.098;14.506;2023-05-20T14:07:22;26.80;43.20
34873;DHT22;21084;51.098;14.506;2023-05-20T14:09:50;27.40;43.00
34873;DHT22;21084;51.098;14.506;2023-05-20T14:12:18;26.90;43.10
34873;DHT22;21084;51.098;14.506;2023-05-20T14:14:48;27.20;43.20
34873;DHT22;21084;51.098;14.506;2023-05-20T14:17:17;28.10;43.00
34873;DHT22;21084;51.098;14.506;2023-05-20T14:19:45;28.00;42.20
34873;DHT22;21084;51.098;14.506;2023-05-20T14:22:15;28.40;42.60
34873;DHT22;21084;51.098;14.506;2023-05-20T14:24:43;28.80;40.80
34873;DHT22;21084;51.098;14.506;2023-05-20T14:27:11;28.40;40.10
34873;DHT22;21084;51.098;14.506;2023-05-20T14:29:40;27.40;41.20
34873;DHT22;21084;51.098;14.506;2023-05-20T14:32:08;27.40;42.70
34873;DHT22;21084;51.098;14.506;2023-05-20T14:34:37;27.10;43.10
34873;DHT22;21084;51.098;14.506;2023-05-20T14:37:05;26.30;43.90
34873;DHT22;21084;51.098;14.506;2023-05-20T14:39:37;26.80;43.90
34873;DHT22;21084;51.098;14.506;2023-05-20T14:42:05;27.50;43.10
34873;DHT22;21084;51.098;14.506;2023-05-20T14:44:33;27.60;42.30
34873;DHT22;21084;51.098;14.506;2023-05-20T14:47:02;27.80;41.80
34873;DHT22;21084;51.098;14.506;2023-05-20T14:49:30;27.90;42.50
34873;DHT22;21084;51.098;14.506;2023-05-20T14:51:58;27.70;42.00
34873;DHT22;21084;51.098;14.506;2023-05-20T14:54:26;27.50;42.80
34873;DHT22;21084;51.098;14.506;2023-05-20T14:56:56;26.50;43.50
34873;DHT22;21084;51.098;14.506;2023-05-20T14:59:24;26.10;43.80
34873;DHT22;21084;51.098;14.506;2023-05-20T15:01:53;26.30;43.00
34873;DHT22;21084;51.098;14.506;2023-05-20T15:04:21;25.70;44.60
34873;DHT22;21084;51.098;14.506;2023-05-20T15:06:49;26.00;44.90
34873;DHT22;21084;51.098;14.506;2023-05-20T15:09:18;26.00;44.40
34873;DHT22;21084;51.098;14.506;2023-05-20T15:11:46;25.80;44.00
34873;DHT22;21084;51.098;14.506;2023-05-20T15:14:16;26.30;44.10
34873;DHT22;21084;51.098;14.506;2023-05-20T15:16:44;25.40;44.60
34873;DHT22;21084;51.098;14.506;2023-05-20T15:19:13;25.40;45.70
34873;DHT22;21084;51.098;14.506;2023-05-20T15:21:42;25.90;45.70
34873;DHT22;21084;51.098;14.506;2023-05-20T15:24:10;26.20;45.10
34873;DHT22;21084;51.098;14.506;2023-05-20T15:26:39;26.30;44.40
34873;DHT22;21084;51.098;14.506;2023-05-20T15:29:07;26.00;44.60